Time;durP1;ratioP1;P1;durP2;ratioP2;P2;SDS_P1;SDS_P2;PMS_P1;PMS_P2;Temp;Humidity;BMP_temperature;BMP_pressure;BME280_temperature;BME280_humidity;BME280_pressure;Samples;Min_cycle;Max_cycle;Signal;HPM_P1;HPM_P2
2023/12/06 00:00:06;;;;;;;6.10;4.75;;;9.30;99.90;;;;;;4265255;27;20124;-61
2023/12/06 00:02:10;;;;;;;9.05;5.60;;;9.30;99.90;;;;;;4265347;27;20083;-61
2023/12/06 00:04:12;;;;;;;6.53;4.88;;;9.30;99.90;;;;;;4266590;27;20121;-63
2023/12/06 00:06:14;;;;;;;8.45;5.45;;;9.40;99.90;;;;;;4265863;27;20105;-59
2023/12/06 00:08:17;;;;;;;7.65;4.80;;;9.20;99.90;;;;;;4266068;27;20447;-61
2023/12/06 00:10:19;;;;;;;10.45;5.45;;;9.20;99.90;;;;;;4265646;27;20070;-62
2023/12/06 00:12:21;;;;;;;9.85;4.70;;;9.20;99.90;;;;;;4247257;27;20505;-59
2023/12/06 00:14:24;;;;;;;8.93;4.95;;;9.30;99.90;;;;;;4265263;27;20483;-59
2023/12/06 00:16:26;;;;;;;9.00;4.63;;;9.30;99.90;;;;;;4265168;27;20068;-58
2023/12/06 00:18:30;;;;;;;7.45;4.88;;;9.30;99.90;;;;;;4265547;27;20413;-58
2023/12/06 00:20:32;;;;;;;8.30;4.50;;;9.30;99.90;;;;;;4264993;27;20538;-60
2023/12/06 00:22:34;;;;;;;11.48;4.40;;;9.30;99.90;;;;;;4264985;27;20042;-59
2023/12/06 00:24:38;;;;;;;7.13;4.40;;;9.40;99.90;;;;;;4246830;27;20049;-59
2023/12/06 00:26:42;;;;;;;9.95;4.50;;;9.40;99.90;;;;;;4265015;27;20151;-59
2023/12/06 00:28:44;;;;;;;12.13;4.90;;;9.40;99.90;;;;;;4264700;27;20102;-64
2023/12/06 00:30:46;;;;;;;11.93;5.47;;;9.30;99.90;;;;;;4265135;27;20439;-61
2023/12/06 00:32:48;;;;;;;10.85;5.07;;;9.40;99.90;;;;;;4265122;27;20066;-61
2023/12/06 00:34:52;;;;;;;8.70;4.63;;;9.30;99.90;;;;;;4264779;27;20047;-61
2023/12/06 00:36:54;;;;;;;12.32;4.32;;;9.30;99.90;;;;;;4265193;27;20054;-61
2023/12/06 00:38:56;;;;;;;6.45;4.35;;;9.30;99.90;;;;;;4264598;27;20046;-61
2023/12/06 00:40:59;;;;;;;10.93;5.47;;;9.30;99.90;;;;;;4265117;27;20591;-61
2023/12/06 00:43:03;;;;;;;13.20;5.47;;;9.30;99.90;;;;;;4264464;27;20047;-61
2023/12/06 00:45:06;;;;;;;12.57;4.93;;;9.40;99.90;;;;;;4264983;27;20070;-61
2023/12/06 00:47:08;;;;;;;11.90;5.05;;;9.40;99.90;;;;;;4264863;27;20083;-61
2023/12/06 00:49:11;;;;;;;12.35;4.80;;;9.40;99.90;;;;;;4264617;27;20133;-61
2023/12/06 00:51:15;;;;;;;11.82;5.40;;;9.30;99.90;;;;;;4264739;27;20497;-61
2023/12/06 00:53:17;;;;;;;13.68;4.85;;;9.40;99.90;;;;;;4264927;27;20459;-61
2023/12/06 00:55:19;;;;;;;9.95;4.88;;;9.30;99.90;;;;;;4264514;27;20062;-61
2023/12/06 00:57:22;;;;;;;11.65;5.20;;;9.30;99.90;;;;;;4264769;27;20494;-62
2023/12/06 00:59:24;;;;;;;10.52;4.53;;;9.30;99.90;;;;;;4264451;27;20470;-61
2023/12/06 01:01:27;;;;;;;13.60;5.32;;;9.40;99.90;;;;;;4264660;27;20174;-61
2023/12/06 01:03:29;;;;;;;9.18;5.13;;;9.40;99.90;;;;;;4264451;27;20087;-62
2023/12/06 01:05:31;;;;;;;8.70;4.40;;;9.40;99.90;;;;;;4264731;27;20042;-62
2023/12/06 01:07:35;;;;;;;8.52;4.20;;;9.40;99.90;;;;;;4264490;27;20039;-61
2023/12/06 01:09:37;;;;;;;11.27;4.30;;;9.40;99.90;;;;;;4264726;27;20450;-62
2023/12/06 01:11:39;;;;;;;10.40;4.25;;;9.40;99.90;;;;;;4264577;27;20050;-61
2023/12/06 01:13:41;;;;;;;15.40;5.38;;;9.40;99.90;;;;;;4264759;27;20073;-61
2023/12/06 01:15:43;;;;;;;8.77;4.50;;;9.30;99.90;;;;;;4268228;27;20069;-61
2023/12/06 01:17:46;;;;;;;12.32;4.97;;;9.30;99.90;;;;;;4268103;27;20054;-61
2023/12/06 01:19:48;;;;;;;8.57;3.88;;;9.30;99.90;;;;;;4267891;27;20051;-62
2023/12/06 01:21:50;;;;;;;9.05;4.40;;;9.30;99.90;;;;;;4267947;27;20050;-61
2023/12/06 01:23:54;;;;;;;11.05;3.85;;;9.30;99.90;;;;;;4268121;27;20470;-61
2023/12/06 01:25:56;;;;;;;10.98;4.00;;;9.40;99.90;;;;;;4268136;27;20477;-62
2023/12/06 01:27:58;;;;;;;8.73;3.53;;;9.30;99.90;;;;;;4267839;27;20386;-61
2023/12/06 01:30:00;;;;;;;11.15;4.57;;;9.30;99.90;;;;;;4268296;27;20043;-67
2023/12/06 01:32:13;;;;;;;8.95;4.35;;;9.20;99.90;;;;;;4270385;27;20058;-62
2023/12/06 01:34:15;;;;;;;11.85;4.25;;;9.10;99.90;;;;;;4269141;27;20050;-62
2023/12/06 01:36:18;;;;;;;8.10;3.80;;;9.00;99.90;;;;;;4269440;27;20054;-61
2023/12/06 01:38:20;;;;;;;10.95;4.55;;;9.00;99.90;;;;;;4270326;27;20051;-60
2023/12/06 01:40:23;;;;;;;8.23;4.22;;;9.00;99.90;;;;;;4269578;27;20111;-61
2023/12/06 01:42:25;;;;;;;7.28;4.10;;;9.00;99.90;;;;;;4267937;27;20137;-61
2023/12/06 01:44:27;;;;;;;8.70;4.13;;;9.00;99.90;;;;;;4268396;27;20082;-60
2023/12/06 01:46:30;;;;;;;7.82;3.55;;;9.00;99.90;;;;;;4268166;27;20066;-60
2023/12/06 01:48:32;;;;;;;9.15;4.53;;;9.00;99.90;;;;;;4267815;27;20068;-60
2023/12/06 01:50:37;;;;;;;10.70;4.90;;;9.10;99.90;;;;;;4249407;27;20489;-59
2023/12/06 01:52:40;;;;;;;13.18;5.15;;;9.00;99.90;;;;;;4267440;27;20074;-62
2023/12/06 01:54:43;;;;;;;10.52;4.28;;;9.00;99.90;;;;;;4267254;27;20135;-61
2023/12/06 01:56:47;;;;;;;10.80;4.32;;;8.90;99.90;;;;;;4267442;27;20068;-61
2023/12/06 01:58:50;;;;;;;10.02;4.13;;;8.90;99.90;;;;;;4267481;27;20070;-60
2023/12/06 02:00:52;;;;;;;9.95;4.60;;;8.90;99.90;;;;;;4267529;27;20458;-62
2023/12/06 02:02:54;;;;;;;9.38;4.60;;;8.90;99.90;;;;;;4267524;27;20115;-61
2023/12/06 02:04:56;;;;;;;10.05;3.45;;;8.90;99.90;;;;;;4267350;27;20039;-61
2023/12/06 02:06:59;;;;;;;12.73;4.35;;;9.00;99.90;;;;;;4267132;27;20126;-60
2023/12/06 02:09:03;;;;;;;8.95;4.05;;;9.00;99.90;;;;;;4267555;27;20076;-62
2023/12/06 02:11:05;;;;;;;10.55;4.70;;;9.00;99.90;;;;;;4267040;27;20416;-62
2023/12/06 02:13:09;;;;;;;8.82;4.18;;;9.00;99.90;;;;;;4267351;27;20050;-63
2023/12/06 02:15:11;;;;;;;9.00;4.80;;;9.00;99.90;;;;;;4268033;27;20346;-61
2023/12/06 02:17:14;;;;;;;11.38;4.43;;;9.00;99.90;;;;;;4267403;27;20042;-61
2023/12/06 02:19:25;;;;;;;11.23;4.55;;;9.00;99.90;;;;;;4268223;27;20046;-64
2023/12/06 02:21:28;;;;;;;9.90;5.40;;;9.00;99.90;;;;;;4268129;27;20047;-61
2023/12/06 02:23:33;;;;;;;12.20;4.43;;;9.00;99.90;;;;;;4267967;27;20051;-61
2023/12/06 02:25:37;;;;;;;9.90;4.60;;;9.00;99.90;;;;;;4267594;27;20071;-62
2023/12/06 02:27:41;;;;;;;6.88;4.13;;;9.00;99.90;;;;;;4267300;27;20043;-61
2023/12/06 02:29:43;;;;;;;14.80;5.55;;;9.00;99.90;;;;;;4248737;27;20122;-61
2023/12/06 02:31:45;;;;;;;7.38;4.63;;;9.00;99.90;;;;;;4267039;27;20050;-61
2023/12/06 02:33:50;;;;;;;9.85;4.30;;;8.90;99.90;;;;;;4266886;27;20051;-61
2023/12/06 02:35:56;;;;;;;6.70;4.32;;;9.00;99.90;;;;;;4232108;27;20048;-62
2023/12/06 02:38:01;;;;;;;7.55;4.32;;;9.10;99.90;;;;;;4267557;27;20125;-62
2023/12/06 02:40:06;;;;;;;12.05;5.13;;;9.00;99.90;;;;;;4267373;27;20095;-66
2023/12/06 02:42:10;;;;;;;8.43;5.28;;;9.00;99.90;;;;;;4267553;27;20498;-62
2023/12/06 02:44:12;;;;;;;11.80;4.75;;;9.00;99.90;;;;;;4268058;27;20047;-67
2023/12/06 02:46:14;;;;;;;9.30;4.35;;;8.90;99.90;;;;;;4267272;27;20070;-61
2023/12/06 02:48:16;;;;;;;12.93;5.32;;;8.90;99.90;;;;;;4267006;27;20129;-61
2023/12/06 02:50:19;;;;;;;8.73;4.88;;;8.90;99.90;;;;;;4267136;27;20095;-62
2023/12/06 02:52:21;;;;;;;11.75;4.93;;;8.90;99.90;;;;;;4266469;27;20050;-61
2023/12/06 02:54:23;;;;;;;10.73;5.03;;;9.00;99.90;;;;;;4266335;27;20486;-61
2023/12/06 02:56:25;;;;;;;12.73;5.00;;;9.00;99.90;;;;;;4266266;27;20047;-62
2023/12/06 02:58:29;;;;;;;15.30;5.25;;;9.00;99.90;;;;;;4266660;27;20043;-61
2023/12/06 03:00:31;;;;;;;10.73;4.70;;;8.90;99.90;;;;;;4266392;27;20043;-61
2023/12/06 03:02:33;;;;;;;12.15;5.15;;;9.00;99.90;;;;;;4266384;27;20080;-61
2023/12/06 03:04:35;;;;;;;12.77;4.63;;;8.90;99.90;;;;;;4266616;27;20038;-61
2023/12/06 03:06:37;;;;;;;10.88;4.68;;;8.90;99.90;;;;;;4266130;27;20050;-62
2023/12/06 03:08:39;;;;;;;12.10;4.72;;;8.90;99.90;;;;;;4266125;27;20070;-61
2023/12/06 03:10:41;;;;;;;12.32;5.10;;;8.90;99.90;;;;;;4266433;27;20402;-61
2023/12/06 03:12:43;;;;;;;9.90;4.55;;;8.90;99.90;;;;;;4266477;27;20078;-61
2023/12/06 03:14:47;;;;;;;14.45;5.18;;;8.90;99.90;;;;;;4266033;27;20085;-61
2023/12/06 03:16:49;;;;;;;10.73;5.05;;;8.90;99.90;;;;;;4266297;27;20464;-60
2023/12/06 03:18:51;;;;;;;10.02;4.50;;;8.90;99.90;;;;;;4266081;27;20053;-62
2023/12/06 03:20:53;;;;;;;14.18;5.70;;;9.00;99.90;;;;;;4266018;27;20043;-61
2023/12/06 03:22:56;;;;;;;12.30;4.72;;;9.00;99.90;;;;;;4247344;27;20051;-61
2023/12/06 03:24:58;;;;;;;10.18;4.80;;;9.10;99.90;;;;;;4266637;27;20077;-61
2023/12/06 03:27:00;;;;;;;17.75;5.60;;;9.00;99.90;;;;;;4266139;27;20409;-61
2023/12/06 03:29:02;;;;;;;15.43;5.35;;;8.90;99.90;;;;;;4265998;27;20127;-61
2023/12/06 03:31:05;;;;;;;11.75;5.65;;;8.80;99.90;;;;;;4266056;27;20401;-61
2023/12/06 03:33:07;;;;;;;15.38;5.40;;;8.80;99.90;;;;;;4266015;27;20091;-60
2023/12/06 03:35:09;;;;;;;13.80;5.82;;;8.70;99.90;;;;;;4265589;27;20043;-59
2023/12/06 03:37:11;;;;;;;12.77;5.40;;;8.70;99.90;;;;;;4264891;27;20043;-61
2023/12/06 03:39:13;;;;;;;10.38;5.28;;;8.70;99.90;;;;;;4265700;27;20121;-61
2023/12/06 03:41:17;;;;;;;14.57;5.65;;;8.80;99.90;;;;;;4265834;27;20061;-61
2023/12/06 03:43:19;;;;;;;13.50;6.00;;;8.70;99.90;;;;;;4265570;27;20101;-60
2023/12/06 03:45:22;;;;;;;14.13;5.40;;;8.80;99.90;;;;;;4265577;27;20050;-61
2023/12/06 03:47:26;;;;;;;14.73;5.97;;;8.70;99.90;;;;;;4247629;27;20053;-61
2023/12/06 03:49:28;;;;;;;15.23;6.93;;;8.70;99.90;;;;;;4265691;27;20042;-59
2023/12/06 03:51:30;;;;;;;17.48;6.55;;;8.60;99.90;;;;;;4265169;27;20057;-61
2023/12/06 03:53:33;;;;;;;14.20;5.78;;;8.40;99.90;;;;;;4265630;27;20046;-60
2023/12/06 03:55:35;;;;;;;15.40;6.53;;;8.50;99.90;;;;;;4265292;27;20111;-60
2023/12/06 03:57:37;;;;;;;15.15;6.65;;;8.60;99.90;;;;;;4265395;27;20455;-60
2023/12/06 03:59:39;;;;;;;10.95;5.88;;;8.60;99.90;;;;;;4265605;27;20425;-60
2023/12/06 04:01:43;;;;;;;15.95;5.60;;;8.60;99.90;;;;;;4265655;27;20074;-61
2023/12/06 04:03:47;;;;;;;13.82;6.30;;;8.70;99.90;;;;;;4265365;27;20137;-61
2023/12/06 04:05:49;;;;;;;13.52;5.72;;;8.60;99.90;;;;;;4265462;27;20043;-61
2023/12/06 04:07:51;;;;;;;14.48;5.93;;;8.70;99.90;;;;;;4265106;27;20133;-60
2023/12/06 04:09:53;;;;;;;16.30;5.45;;;8.70;99.90;;;;;;4265569;27;20053;-60
2023/12/06 04:11:55;;;;;;;12.05;5.75;;;8.60;99.90;;;;;;4265098;27;20078;-60
2023/12/06 04:13:57;;;;;;;13.50;5.60;;;8.60;99.90;;;;;;4265203;27;20047;-60
2023/12/06 04:15:59;;;;;;;12.30;4.97;;;8.70;99.90;;;;;;4265155;27;20533;-60
2023/12/06 04:18:01;;;;;;;13.55;5.95;;;8.70;99.90;;;;;;4265108;27;20050;-69
2023/12/06 04:20:08;;;;;;;14.35;6.38;;;8.80;99.90;;;;;;4265369;27;20446;-60
2023/12/06 04:22:10;;;;;;;15.77;5.63;;;8.70;99.90;;;;;;4264776;27;20459;-60
2023/12/06 04:24:12;;;;;;;10.52;5.55;;;8.80;99.90;;;;;;4265235;27;20050;-61
2023/12/06 04:26:14;;;;;;;14.68;5.30;;;8.80;99.90;;;;;;4265220;27;20145;-61
2023/12/06 04:28:17;;;;;;;13.18;5.10;;;8.90;99.90;;;;;;4265109;27;20066;-61
2023/12/06 04:30:19;;;;;;;14.60;5.05;;;8.80;99.90;;;;;;4246666;27;20047;-61
2023/12/06 04:32:21;;;;;;;19.75;6.07;;;8.90;99.90;;;;;;4265134;27;20058;-60
2023/12/06 04:34:24;;;;;;;13.50;5.30;;;8.70;99.90;;;;;;4265113;27;20073;-60
2023/12/06 04:36:27;;;;;;;14.40;6.15;;;8.60;99.90;;;;;;4264529;27;20477;-60
2023/12/06 04:38:29;;;;;;;14.05;4.90;;;8.60;99.90;;;;;;4246399;27;20051;-61
2023/12/06 04:40:31;;;;;;;12.18;5.00;;;8.60;99.90;;;;;;4247843;27;20089;-61
2023/12/06 04:42:33;;;;;;;13.63;4.65;;;8.60;99.90;;;;;;4246389;27;20471;-62
2023/12/06 04:44:35;;;;;;;16.42;5.50;;;8.60;99.90;;;;;;4247926;27;20051;-60
2023/12/06 04:46:37;;;;;;;13.45;5.10;;;8.60;99.90;;;;;;4247719;27;20100;-61
2023/12/06 04:48:39;;;;;;;20.92;6.03;;;8.70;99.90;;;;;;4246726;27;20039;-61
2023/12/06 04:50:42;;;;;;;16.27;5.82;;;8.60;99.90;;;;;;4247452;27;20051;-60
2023/12/06 04:52:45;;;;;;;20.52;5.38;;;8.60;99.90;;;;;;4247485;27;20099;-60
2023/12/06 04:54:47;;;;;;;17.30;5.38;;;8.70;99.90;;;;;;4247455;27;20075;-61
2023/12/06 04:56:49;;;;;;;17.13;5.57;;;8.60;99.90;;;;;;4247397;27;20039;-61
2023/12/06 04:58:51;;;;;;;13.23;4.90;;;8.50;99.90;;;;;;4246355;27;20125;-60
2023/12/06 05:00:54;;;;;;;16.45;5.25;;;8.50;99.90;;;;;;4247673;27;20049;-61
2023/12/06 05:02:56;;;;;;;13.20;5.22;;;8.40;99.90;;;;;;4247626;27;20070;-61
2023/12/06 05:04:58;;;;;;;13.80;5.65;;;8.50;99.90;;;;;;4247504;27;20069;-68
2023/12/06 05:07:00;;;;;;;16.25;5.47;;;8.40;99.90;;;;;;4247796;27;20104;-61
2023/12/06 05:09:07;;;;;;;17.35;6.07;;;8.40;99.90;;;;;;4247454;27;20399;-58
2023/12/06 05:11:09;;;;;;;21.73;5.82;;;8.50;99.90;;;;;;4247518;27;20047;-61
2023/12/06 05:13:11;;;;;;;13.38;5.30;;;8.50;99.90;;;;;;4247623;27;20047;-61
2023/12/06 05:15:15;;;;;;;18.42;5.28;;;8.20;99.90;;;;;;4248852;27;20070;-68
2023/12/06 05:17:17;;;;;;;16.17;5.13;;;8.20;99.90;;;;;;4248887;27;20055;-61
2023/12/06 05:19:19;;;;;;;16.33;5.30;;;8.10;99.90;;;;;;4247454;27;20268;-61
2023/12/06 05:21:21;;;;;;;13.75;5.78;;;8.10;99.90;;;;;;4247898;27;20058;-61
2023/12/06 05:23:23;;;;;;;11.40;4.60;;;8.00;99.90;;;;;;4247563;27;20083;-61
2023/12/06 05:25:27;;;;;;;29.75;6.05;;;8.10;99.90;;;;;;4247482;27;20112;-61
2023/12/06 05:27:30;;;;;;;12.05;5.22;;;8.10;99.90;;;;;;4246186;27;20039;-61
2023/12/06 05:29:32;;;;;;;13.93;4.72;;;8.10;99.90;;;;;;4247586;27;20051;-61
2023/12/06 05:31:34;;;;;;;15.82;4.97;;;8.10;99.90;;;;;;4247427;27;20078;-61
2023/12/06 05:33:37;;;;;;;12.85;5.18;;;8.20;99.90;;;;;;4246940;27;20043;-64
2023/12/06 05:35:40;;;;;;;14.70;5.03;;;8.10;99.90;;;;;;4247308;27;20127;-61
2023/12/06 05:37:41;;;;;;;21.15;4.97;;;8.10;99.90;;;;;;4247051;27;20048;-61
2023/12/06 05:39:43;;;;;;;12.25;5.28;;;8.10;99.90;;;;;;4260448;27;20121;-61
2023/12/06 05:41:47;;;;;;;17.40;5.13;;;8.20;99.90;;;;;;4264350;27;20074;-60
2023/12/06 05:43:50;;;;;;;18.23;5.10;;;8.30;99.90;;;;;;4264275;27;20049;-61
2023/12/06 05:45:52;;;;;;;18.50;5.60;;;8.30;99.90;;;;;;4263931;27;20057;-61
2023/12/06 05:47:54;;;;;;;10.77;4.82;;;8.30;99.90;;;;;;4263914;27;20055;-61
2023/12/06 05:49:56;;;;;;;13.93;5.82;;;8.20;99.90;;;;;;4264311;27;20069;-61
2023/12/06 05:51:58;;;;;;;15.93;5.57;;;8.30;99.90;;;;;;4264248;27;20039;-61
2023/12/06 05:54:00;;;;;;;16.92;6.63;;;8.40;99.90;;;;;;4264264;27;20119;-61
2023/12/06 05:56:04;;;;;;;18.98;7.80;;;8.40;99.90;;;;;;4263741;27;20082;-64
2023/12/06 05:58:09;;;;;;;25.67;8.90;;;8.50;99.90;;;;;;4264385;27;20426;-60
2023/12/06 06:00:12;;;;;;;17.30;8.30;;;8.40;99.90;;;;;;4265282;27;20053;-61
2023/12/06 06:02:14;;;;;;;16.50;8.77;;;8.60;99.90;;;;;;4266899;27;20049;-61
2023/12/06 06:04:16;;;;;;;19.08;7.72;;;8.60;99.90;;;;;;4267484;27;20421;-61
2023/12/06 06:06:18;;;;;;;21.73;9.25;;;8.60;99.90;;;;;;4267646;27;20043;-61
2023/12/06 06:08:20;;;;;;;17.23;8.05;;;8.50;99.90;;;;;;4267204;27;20104;-61
2023/12/06 06:10:22;;;;;;;15.48;5.60;;;8.40;99.90;;;;;;4267434;27;20057;-58
2023/12/06 06:12:24;;;;;;;17.17;6.68;;;8.50;99.90;;;;;;4267168;27;20353;-61
2023/12/06 06:14:29;;;;;;;16.27;5.97;;;8.40;99.90;;;;;;4267333;27;20073;-61
2023/12/06 06:16:31;;;;;;;15.35;5.05;;;8.50;99.90;;;;;;4266800;27;20038;-61
2023/12/06 06:18:33;;;;;;;14.38;5.97;;;8.50;99.90;;;;;;4267189;27;20180;-60
2023/12/06 06:20:35;;;;;;;11.88;5.53;;;8.50;99.90;;;;;;4266859;27;20046;-60
2023/12/06 06:22:37;;;;;;;22.17;6.80;;;8.50;99.90;;;;;;4267170;27;20042;-60
2023/12/06 06:24:39;;;;;;;13.38;5.72;;;8.40;99.90;;;;;;4267233;27;20038;-60
2023/12/06 06:26:41;;;;;;;15.93;5.45;;;8.40;99.90;;;;;;4267066;27;20039;-61
2023/12/06 06:28:43;;;;;;;15.93;5.70;;;8.20;99.90;;;;;;4266783;27;20049;-61
2023/12/06 06:30:47;;;;;;;16.52;5.80;;;8.20;99.90;;;;;;4267120;27;20483;-61
2023/12/06 06:32:49;;;;;;;16.52;5.30;;;8.10;99.90;;;;;;4266172;27;20046;-61
2023/12/06 06:34:51;;;;;;;15.20;4.70;;;8.20;99.90;;;;;;4266976;27;20056;-61
2023/12/06 06:36:53;;;;;;;13.15;5.35;;;8.30;99.90;;;;;;4266875;27;20049;-61
2023/12/06 06:38:55;;;;;;;12.55;5.35;;;8.20;99.90;;;;;;4266577;27;20410;-61
2023/12/06 06:40:58;;;;;;;17.05;5.20;;;8.10;99.90;;;;;;4266575;27;20046;-60
2023/12/06 06:43:00;;;;;;;14.85;5.05;;;8.10;99.90;;;;;;4266833;27;20091;-61
2023/12/06 06:45:03;;;;;;;16.00;5.35;;;8.20;99.90;;;;;;4268122;27;20082;-61
2023/12/06 06:47:07;;;;;;;11.25;5.55;;;8.10;99.90;;;;;;4266884;27;20478;-61
2023/12/06 06:49:09;;;;;;;18.58;5.70;;;8.20;99.90;;;;;;4266886;27;20046;-61
2023/12/06 06:51:11;;;;;;;14.18;6.03;;;8.20;99.90;;;;;;4266625;27;20413;-60
2023/12/06 06:53:13;;;;;;;16.92;5.80;;;8.10;99.90;;;;;;4266728;27;20051;-60
2023/12/06 06:55:15;;;;;;;18.23;6.28;;;8.00;99.90;;;;;;4266384;27;20394;-61
2023/12/06 06:57:18;;;;;;;14.75;5.80;;;8.20;99.90;;;;;;4266580;27;20130;-62
2023/12/06 06:59:20;;;;;;;16.35;5.97;;;8.10;99.90;;;;;;4266723;27;20447;-61
2023/12/06 07:01:22;;;;;;;15.13;5.53;;;8.10;99.90;;;;;;4266378;27;20072;-61
2023/12/06 07:03:25;;;;;;;14.68;5.35;;;8.20;99.90;;;;;;4266464;27;20096;-60
2023/12/06 07:05:27;;;;;;;14.88;5.57;;;8.20;99.90;;;;;;4266730;27;20121;-61
2023/12/06 07:07:30;;;;;;;16.45;5.22;;;8.20;99.90;;;;;;4266398;27;20039;-61
2023/12/06 07:09:37;;;;;;;18.17;5.82;;;8.10;99.90;;;;;;4248858;27;20134;-60
2023/12/06 07:11:40;;;;;;;16.80;5.45;;;8.00;99.90;;;;;;4265320;27;20425;-60
2023/12/06 07:13:42;;;;;;;15.57;5.45;;;8.10;99.90;;;;;;4266296;27;20046;-67
2023/12/06 07:15:46;;;;;;;22.50;5.35;;;8.00;99.90;;;;;;4266046;27;20062;-61
2023/12/06 07:17:48;;;;;;;7.28;3.72;;;8.00;99.90;;;;;;4266534;27;20129;-61
2023/12/06 07:19:52;;;;;;;17.48;6.03;;;7.90;99.90;;;;;;4266079;27;20060;-61
2023/12/06 07:21:54;;;;;;;13.95;5.15;;;8.00;99.90;;;;;;4266078;27;20047;-62
2023/12/06 07:23:56;;;;;;;18.17;5.32;;;8.00;99.90;;;;;;4265839;27;20453;-67
2023/12/06 07:25:58;;;;;;;15.45;5.15;;;7.90;99.90;;;;;;4266266;27;20474;-61
2023/12/06 07:28:02;;;;;;;18.90;5.30;;;8.00;99.90;;;;;;4267227;27;20490;-61
2023/12/06 07:30:06;;;;;;;17.90;5.87;;;8.00;99.90;;;;;;4266921;27;20043;-61
2023/12/06 07:32:08;;;;;;;17.17;5.90;;;7.90;99.90;;;;;;4266504;27;20582;-60
2023/12/06 07:34:10;;;;;;;15.05;5.93;;;7.80;99.90;;;;;;4266340;27;20054;-61
2023/12/06 07:36:23;;;;;;;21.35;6.45;;;7.80;99.90;;;;;;4249344;27;20047;-60
2023/12/06 07:38:28;;;;;;;18.85;6.10;;;7.80;99.90;;;;;;4266164;27;20070;-61
2023/12/06 07:40:30;;;;;;;15.63;5.65;;;7.80;99.90;;;;;;4266270;27;20497;-61
2023/12/06 07:42:35;;;;;;;19.48;6.35;;;7.80;99.90;;;;;;4266248;27;20043;-60
2023/12/06 07:44:37;;;;;;;18.13;5.47;;;7.80;99.90;;;;;;4265672;27;20050;-60
2023/12/06 07:46:39;;;;;;;11.70;5.18;;;7.80;99.90;;;;;;4265922;27;20043;-60
2023/12/06 07:48:42;;;;;;;15.05;6.22;;;7.90;99.90;;;;;;4265833;27;20401;-61
2023/12/06 07:50:44;;;;;;;15.13;6.25;;;8.00;99.90;;;;;;4266169;27;20047;-61
2023/12/06 07:52:50;;;;;;;12.70;6.22;;;7.90;99.90;;;;;;4267650;27;20042;-67
2023/12/06 07:54:52;;;;;;;14.25;6.15;;;8.00;99.90;;;;;;4267122;27;20069;-61
2023/12/06 07:56:54;;;;;;;12.57;5.53;;;7.90;99.90;;;;;;4266425;27;20060;-61
2023/12/06 07:59:00;;;;;;;20.05;5.63;;;7.90;99.90;;;;;;4265887;27;20454;-61
2023/12/06 08:01:02;;;;;;;12.77;5.50;;;7.90;99.90;;;;;;4265768;27;20042;-67
2023/12/06 08:03:04;;;;;;;18.42;5.85;;;8.00;99.90;;;;;;4265789;27;20081;-61
2023/12/06 08:05:07;;;;;;;16.00;5.85;;;7.90;99.90;;;;;;4247241;27;20054;-61
2023/12/06 08:07:11;;;;;;;12.45;5.72;;;7.90;99.90;;;;;;4266506;27;20134;-64
2023/12/06 08:09:17;;;;;;;18.38;6.57;;;8.00;99.90;;;;;;4267207;27;20130;-62
2023/12/06 08:11:19;;;;;;;15.30;5.70;;;8.00;99.90;;;;;;4266945;27;20461;-61
2023/12/06 08:13:24;;;;;;;16.38;5.93;;;8.00;99.90;;;;;;4266180;27;20050;-61
2023/12/06 08:15:27;;;;;;;16.83;6.28;;;7.90;99.90;;;;;;4266175;27;20049;-61
2023/12/06 08:17:30;;;;;;;12.65;5.60;;;7.90;99.90;;;;;;4265899;27;20451;-61
2023/12/06 08:19:32;;;;;;;14.00;5.95;;;7.90;99.90;;;;;;4266430;27;20042;-63
2023/12/06 08:21:36;;;;;;;16.20;6.05;;;8.00;99.90;;;;;;4266228;27;20051;-61
2023/12/06 08:23:37;;;;;;;14.88;6.50;;;7.90;99.90;;;;;;4265516;27;20042;-61
2023/12/06 08:25:41;;;;;;;15.98;6.20;;;8.00;99.90;;;;;;4265599;27;20526;-61
2023/12/06 08:27:44;;;;;;;17.13;6.30;;;8.20;99.90;;;;;;4265308;27;20491;-61
2023/12/06 08:29:46;;;;;;;15.65;6.07;;;8.20;99.90;;;;;;4265817;27;20122;-61
2023/12/06 08:31:48;;;;;;;14.40;6.25;;;8.30;99.90;;;;;;4265835;27;20046;-61
2023/12/06 08:33:50;;;;;;;15.50;6.30;;;8.20;99.90;;;;;;4265417;27;20148;-61
2023/12/06 08:35:52;;;;;;;13.63;5.90;;;8.20;99.90;;;;;;4265240;27;20046;-61
2023/12/06 08:37:55;;;;;;;17.48;6.05;;;8.20;99.90;;;;;;4265490;27;20478;-60
2023/12/06 08:39:59;;;;;;;21.33;6.60;;;8.10;99.90;;;;;;4265887;27;20125;-67
2023/12/06 08:42:04;;;;;;;16.80;6.45;;;8.20;99.90;;;;;;4265141;27;20537;-61
2023/12/06 08:44:07;;;;;;;14.00;5.95;;;8.20;99.90;;;;;;4265303;27;20053;-61
2023/12/06 08:46:09;;;;;;;16.85;6.32;;;8.40;99.90;;;;;;4264663;27;20043;-61
2023/12/06 08:48:12;;;;;;;17.67;6.95;;;8.30;99.90;;;;;;4264901;27;20042;-61
2023/12/06 08:50:14;;;;;;;16.42;6.20;;;8.30;99.90;;;;;;4264822;27;20122;-61
2023/12/06 08:52:17;;;;;;;19.65;6.30;;;8.20;99.90;;;;;;4264877;27;20039;-61
2023/12/06 08:54:19;;;;;;;18.23;7.05;;;8.30;99.90;;;;;;4265013;27;20047;-62
2023/12/06 08:56:21;;;;;;;19.33;7.72;;;8.20;99.90;;;;;;4264408;27;20049;-61
2023/12/06 08:58:25;;;;;;;16.88;7.25;;;8.20;99.90;;;;;;4264780;27;20133;-61
2023/12/06 09:00:27;;;;;;;20.95;6.50;;;8.20;99.90;;;;;;4246895;27;20046;-61
2023/12/06 09:02:29;;;;;;;18.85;6.57;;;8.20;99.90;;;;;;4264654;27;20043;-61
2023/12/06 09:04:31;;;;;;;16.38;5.53;;;8.30;99.90;;;;;;4264511;27;20074;-61
2023/12/06 09:06:34;;;;;;;18.65;6.13;;;8.30;99.90;;;;;;4264678;27;20446;-61
2023/12/06 09:08:36;;;;;;;12.63;4.85;;;8.40;99.90;;;;;;4258813;27;20074;-62
2023/12/06 09:10:39;;;;;;;14.30;5.15;;;8.60;99.90;;;;;;4261805;27;20129;-61
2023/12/06 09:12:42;;;;;;;13.98;5.97;;;8.90;99.90;;;;;;4263891;27;20073;-61
2023/12/06 09:14:46;;;;;;;17.02;6.40;;;9.30;99.90;;;;;;4263920;27;20401;-62
2023/12/06 09:16:49;;;;;;;;;;;9.50;99.90;;;;;;4261072;27;20039;-61
2023/12/06 09:18:51;;;;;;;17.05;6.32;;;9.50;99.90;;;;;;4255957;27;20324;-61
2023/12/06 09:20:54;;;;;;;14.00;6.05;;;9.90;99.90;;;;;;4245988;27;20390;-61
2023/12/06 09:22:56;;;;;;;18.85;6.28;;;10.00;99.90;;;;;;4256979;27;20142;-61
2023/12/06 09:24:58;;;;;;;11.27;5.55;;;10.20;99.70;;;;;;4263684;27;20046;-60
2023/12/06 09:27:00;;;;;;;18.13;6.32;;;10.20;99.90;;;;;;4261204;27;20047;-61
2023/12/06 09:29:05;;;;;;;14.52;6.03;;;10.30;99.30;;;;;;4264055;27;20054;-61
2023/12/06 09:31:08;;;;;;;46.85;6.78;;;10.10;99.50;;;;;;4263923;27;20070;-61
2023/12/06 09:33:10;;;;;;;25.45;6.88;;;10.20;99.90;;;;;;4261776;27;20539;-61
2023/12/06 09:35:13;;;;;;;35.22;7.50;;;10.10;99.60;;;;;;4260211;27;20047;-61
2023/12/06 09:37:15;;;;;;;27.35;6.50;;;10.20;99.90;;;;;;4260455;27;20049;-61
2023/12/06 09:39:20;;;;;;;25.50;6.70;;;10.20;98.80;;;;;;4243611;27;20043;-61
2023/12/06 09:41:27;;;;;;;30.52;6.30;;;10.40;99.30;;;;;;4261873;27;20047;-62
2023/12/06 09:43:29;;;;;;;17.20;6.35;;;10.60;99.20;;;;;;4262020;27;20039;-62
2023/12/06 09:45:32;;;;;;;34.75;6.85;;;10.50;98.80;;;;;;4259770;27;20050;-61
2023/12/06 09:47:36;;;;;;;19.10;6.53;;;10.20;99.40;;;;;;4258653;27;20174;-60
2023/12/06 09:49:38;;;;;;;22.13;7.15;;;10.30;99.40;;;;;;4258973;27;20529;-61
2023/12/06 09:51:41;;;;;;;21.90;7.22;;;10.30;99.40;;;;;;4257831;27;20050;-65
2023/12/06 09:53:44;;;;;;;19.50;7.13;;;10.30;99.80;;;;;;4260408;27;20414;-60
2023/12/06 09:55:47;;;;;;;19.38;7.95;;;10.10;99.20;;;;;;4263576;27;20070;-60
2023/12/06 09:57:51;;;;;;;16.35;6.85;;;10.00;99.20;;;;;;4261644;27;20107;-58
2023/12/06 09:59:53;;;;;;;18.85;7.38;;;10.10;99.40;;;;;;4268322;27;20043;-59
2023/12/06 10:01:55;;;;;;;18.48;6.47;;;10.30;98.80;;;;;;4241398;27;20457;-59
2023/12/06 10:04:03;;;;;;;17.83;6.65;;;10.20;99.00;;;;;;4250448;27;20470;-59
2023/12/06 10:06:05;;;;;;;19.42;6.97;;;10.20;99.10;;;;;;4250606;27;20438;-59
2023/12/06 10:08:07;;;;;;;19.00;6.40;;;10.30;99.10;;;;;;4250880;27;20063;-59
2023/12/06 10:10:14;;;;;;;16.83;6.60;;;10.20;99.40;;;;;;4258835;27;20240;-57
2023/12/06 10:12:16;;;;;;;16.50;6.80;;;10.30;99.00;;;;;;4252670;27;20054;-59
2023/12/06 10:14:18;;;;;;;20.23;6.90;;;10.30;99.00;;;;;;4266236;27;20070;-59
2023/12/06 10:16:21;;;;;;;18.67;5.97;;;10.50;99.00;;;;;;4267322;27;20061;-59
2023/12/06 10:18:24;;;;;;;13.52;6.55;;;10.70;98.60;;;;;;4267182;27;20080;-59
2023/12/06 10:20:30;;;;;;;14.98;6.72;;;10.60;98.70;;;;;;4266098;27;20047;-59
2023/12/06 10:22:34;;;;;;;18.10;6.72;;;10.50;98.70;;;;;;4267246;27;20047;-61
2023/12/06 10:24:42;;;;;;;23.65;7.88;;;10.60;98.60;;;;;;4266510;27;20055;-57
2023/12/06 10:26:46;;;;;;;12.35;6.53;;;10.90;98.20;;;;;;4256101;27;20501;-59
2023/12/06 10:28:49;;;;;;;;;;;10.70;98.30;;;;;;4267708;27;20043;-59
2023/12/06 10:30:59;;;;;;;15.88;5.80;;;10.70;98.60;;;;;;4267245;27;19938;-60
2023/12/06 10:33:02;;;;;;;24.38;7.05;;;10.90;98.20;;;;;;4266918;27;20062;-61
2023/12/06 10:35:05;;;;;;;22.10;7.20;;;11.00;98.10;;;;;;4267066;27;20400;-58
2023/12/06 10:37:12;;;;;;;19.08;7.03;;;10.90;98.40;;;;;;4266523;27;20121;-59
2023/12/06 10:39:20;;;;;;;18.98;6.95;;;11.30;97.80;;;;;;4266164;27;20046;-60